Alvarado, Minnesota
Current Conditions -  °F | °C
As of 4:01 AM on Thursday 29 Jan 2015 (Local Time) from KGFK Reporting Station
Overcast Overcast  
Wind Chill:   Ceiling: 3000
Heat Index: 19°   Visibility: 10mi
Dew Point: 12°   Wind: 17mph
Humidity: 74%   Direction: 340°NNW
Pressure: 30.27"   Gusts: NA
Location:  48.19°N, 97°W
Report Text: KGFK 291001Z AUTO 34015KT 10SM OVC030 M07/M11 A3027 RMK AO2 TSNO
Loading
Personal Weather Stations






























Interactive Weather Map New forecast layout! Learn more

10-Day Weather Forecast

Advertisements
Track Severe Weather on mobile